Ely, MN

5:53 PM CDT on May 30, 2015 (GMT -0500)
Crane Lake | | Change Station
CLOSE
Current Station
Airport
Location: Crane Lake,
Elevation: 1119 ft
Nearby Weather Stations
Active Advisory: Freeze Warning

Elev 1119 ft 48.27 °N, 92.48 °W | Updated 8 minutes ago

Clear
Clear
54 °F
Feels Like 54 °F
N
5
Wind Variable Wind from NNW

Today
High -- | Low -- °F
--% Chance of Precip.
Yesterday
High -- | Low -- °F
Precip. -- in
5:14 AM 8:56 PM
Waxing Gibbous, 92% visible
Pressure 30.33 in
Visibility 10.0 miles
Clouds Clear
Dew Point 27 °F
Humidity 35%
Rainfall 0.00 in
Snow Depth Not available.
UV 3 out of 12
Pollen 8.20 out of 12
Air Quality Not available.
Flu Activity Sporadic
METAR KCDD 302245Z AUTO 34004KT 10SM CLR 12/M03 A3033 RMK AO2

More Conditions Fewer Conditions

Pressure 30.33 in
Visibility 10.0 miles
Clouds Clear
Dew Point 27 °F
Humidity 35%
Rainfall 0.00 in
Snow Depth Not available.
UV 3 out of 12
Pollen 8.20 out of 12
Air Quality Not available.
Flu Activity Sporadic
METAR KCDD 302245Z AUTO 34004KT 10SM CLR 12/M03 A3033 RMK AO2

More Conditions Fewer Conditions

10-Day Weather Forecast

Almanac

Astronomy

May. 30, 2015 Rise Set
Actual Time
Civil Twilight
Nautical Twilight
Astronomical Twilight
Moon
Length of Visible Light
Length of Day
Tomorrow will be .
, % of the Moon is Illuminated

Today's Extremes

State Highs State Lows

Community

WunderPhotos

Upload Photos

1,825,609 photos uploaded!

WunderBlogs® & News

Nearby

Air Quality

  Air Quality AQ Index Pollutant
Not available.

Snow Depth

Station Depth Elevation

Earthquake Activity

City Distance Mag. Time & Date
Minimum magnitude displayed is 2.5.

Coastal Water Temperatures

Place Temperature

Stations

Nearby Weather Stations

Station Location Temp. Windchill Dew Point Humidity Wind Precip. Elev Updated Type
                   
Freeze Warning
Statement as of 3:18 PM CDT on May 30, 2015

... Freeze warning in effect from midnight tonight to 8 am CDT
Sunday...

The National Weather Service in Duluth has issued a freeze
warning... which is in effect from midnight tonight to 8 am CDT
Sunday.

* Location... the Minnesota arrowhead and inland locations of
northwest Wisconsin.

* Temperatures... in the upper 20s.

* Timing... the coldest temperatures will develop around or just
after midnight and persist through Sunday morning.

* Impacts... sensitive plants and vegetation will be damaged if not
   protected or brought inside tonight.

Precautionary/preparedness actions...

A freeze warning means sub-freezing temperatures are imminent or
highly likely. These conditions will kill crops and other
sensitive vegetation.